LDSB/BWK METAR and TAF weather

Enter ICAO airport designator
Station Type Date Time Source
LDSB METAR 2019/04/23 14:00 UTC NOAA

LDSB 231400Z 14012KT 9999 BKN050 12/10 Q1011


Station Type Date Time Source
LDSB Decoded METAR 2019/04/23 14:00 UTC NOAA

Brac, Croatia (LDSB) 43-17-09N 016-40-47E
Apr 23, 2019 - 10:00 AM EDT / 2019.04.23 1400 UTC
Wind: from the SE (140 degrees) at 14 MPH (12 KT):0
Visibility: greater than 7 mile(s):0
Sky conditions: mostly cloudy
Temperature: 53 F (12 C)
Dew Point: 50 F (10 C)
Relative Humidity: 87%
Pressure (altimeter): 29.85 in. Hg (1011 hPa)
ob: LDSB 231400Z 14012KT 9999 BKN050 12/10 Q1011
cycle: 14

Station Type Date Time Source
LDSB TAF 2019/04/23 15:06 UTC NOAA

TAF
AMD LDSB 231502Z 2315/2412 CNL

Example: see airport list